createdAt,value
2023-05-08T00:01:39.310Z,8.954163
2023-05-08T00:05:04.519Z,8.964233
2023-05-08T00:08:29.613Z,9.024658
2023-05-08T00:11:54.783Z,9.014587
2023-05-08T00:15:19.929Z,9.014587
2023-05-08T00:18:45.222Z,8.944092
2023-05-08T00:22:10.258Z,8.954163
2023-05-08T00:25:35.417Z,8.944092
2023-05-08T00:29:00.570Z,8.964233
2023-05-08T00:32:25.787Z,8.984375
2023-05-08T00:35:50.928Z,8.954163
2023-05-08T00:39:16.034Z,8.944092
2023-05-08T00:42:41.181Z,8.863525
2023-05-08T00:46:06.334Z,8.833313
2023-05-08T00:49:31.461Z,8.79303
2023-05-08T00:52:56.633Z,8.762817
2023-05-08T00:56:21.776Z,8.772888
2023-05-08T00:59:46.948Z,8.772888
2023-05-08T01:03:12.236Z,8.79303
2023-05-08T01:06:37.213Z,8.702393
2023-05-08T01:10:02.391Z,8.621826
2023-05-08T01:13:27.489Z,8.631897
2023-05-08T01:16:52.646Z,8.631897
2023-05-08T01:20:17.839Z,8.621826
2023-05-08T01:23:42.964Z,8.561401
2023-05-08T01:27:08.135Z,8.521118
2023-05-08T01:30:33.244Z,8.440552
2023-05-08T01:33:58.440Z,8.500977
2023-05-08T01:37:23.532Z,8.430481
2023-05-08T01:40:48.667Z,8.470764
2023-05-08T01:44:13.838Z,8.400269
2023-05-08T01:47:39.002Z,8.410339
2023-05-08T01:51:04.081Z,8.430481
2023-05-08T01:54:29.263Z,8.339844
2023-05-08T01:57:54.420Z,8.279419
2023-05-08T02:01:19.662Z,8.178711
2023-05-08T02:04:44.791Z,8.118286
2023-05-08T02:08:09.894Z,8.047791
2023-05-08T02:11:35.040Z,7.997437
2023-05-08T02:15:00.198Z,7.977295
2023-05-08T02:18:25.483Z,7.886658
2023-05-08T02:21:50.456Z,7.816162
2023-05-08T02:25:15.588Z,7.78595
2023-05-08T02:28:40.707Z,7.745667
2023-05-08T02:32:05.886Z,7.6651
2023-05-08T02:35:31.033Z,7.574463
2023-05-08T02:38:56.187Z,7.584534
2023-05-08T02:42:21.316Z,7.574463
2023-05-08T02:45:46.503Z,7.53418
2023-05-08T02:49:11.621Z,7.53418
2023-05-08T02:52:36.801Z,7.604675
2023-05-08T02:56:01.906Z,7.53418
2023-05-08T02:59:27.047Z,7.403259
2023-05-08T03:02:52.204Z,7.373047
2023-05-08T03:06:17.372Z,7.373047
2023-05-08T03:09:42.562Z,7.393188
2023-05-08T03:13:07.677Z,7.302551
2023-05-08T03:16:32.896Z,7.28241
2023-05-08T03:19:57.991Z,7.302551
2023-05-08T03:23:23.129Z,7.393188
2023-05-08T03:26:48.288Z,7.493896
2023-05-08T03:30:13.559Z,7.614746
2023-05-08T03:33:38.517Z,7.53418
2023-05-08T03:37:03.653Z,7.503967
2023-05-08T03:40:28.827Z,7.574463
2023-05-08T03:43:54.005Z,7.644958
2023-05-08T03:47:19.132Z,7.634888
2023-05-08T03:50:44.274Z,7.644958
2023-05-08T03:54:09.400Z,7.715454
2023-05-08T03:57:34.551Z,7.765808
2023-05-08T04:00:59.700Z,7.796021
2023-05-08T04:04:24.841Z,7.846375
2023-05-08T04:07:50.055Z,7.846375
2023-05-08T04:11:15.212Z,7.826233
2023-05-08T04:14:40.346Z,7.846375
2023-05-08T04:18:05.601Z,7.816162
2023-05-08T04:21:30.685Z,7.765808
2023-05-08T04:24:55.853Z,7.705383
2023-05-08T04:28:20.964Z,7.715454
2023-05-08T04:31:46.226Z,7.705383
2023-05-08T04:35:11.630Z,7.765808
2023-05-08T04:38:36.556Z,7.715454
2023-05-08T04:42:01.786Z,7.604675
2023-05-08T04:45:26.969Z,7.554321
2023-05-08T04:48:52.236Z,7.574463
2023-05-08T04:52:17.427Z,7.685242
2023-05-08T04:55:42.554Z,7.685242
2023-05-08T04:59:07.716Z,7.765808
2023-05-08T05:02:32.922Z,7.826233
2023-05-08T05:05:57.996Z,7.926941
2023-05-08T05:09:23.221Z,7.926941
2023-05-08T05:12:48.442Z,7.967224
2023-05-08T05:16:13.538Z,7.91687
2023-05-08T05:19:38.666Z,7.91687
2023-05-08T05:23:03.847Z,7.977295
2023-05-08T05:26:29.148Z,7.926941
2023-05-08T05:29:54.287Z,7.947083
2023-05-08T05:33:19.433Z,8.03772
2023-05-08T05:36:44.555Z,8.148499
2023-05-08T05:40:09.768Z,8.370056
2023-05-08T05:43:34.954Z,8.430481
2023-05-08T05:47:00.272Z,8.551331
2023-05-08T05:50:25.316Z,8.652039
2023-05-08T05:53:50.581Z,8.702393
2023-05-08T05:57:15.762Z,8.762817
2023-05-08T06:00:41.002Z,8.762817
2023-05-08T06:04:06.301Z,8.863525
2023-05-08T06:07:31.468Z,8.944092
2023-05-08T06:10:56.686Z,9.135437
2023-05-08T06:14:21.872Z,9.236145
2023-05-08T06:17:47.217Z,9.316711
2023-05-08T06:21:12.292Z,9.508057
2023-05-08T06:24:37.483Z,9.689331
2023-05-08T06:28:02.711Z,9.779968
2023-05-08T06:31:27.960Z,9.840393
2023-05-08T06:34:53.088Z,9.870605
2023-05-08T06:38:18.302Z,9.910889
2023-05-08T06:41:43.497Z,9.961243
2023-05-08T06:45:08.647Z,10.122375
2023-05-08T06:48:34.053Z,10.263367
2023-05-08T06:51:59.278Z,10.273438
2023-05-08T06:55:24.441Z,10.414429
2023-05-08T06:58:56.924Z,10.545349
2023-05-08T07:02:14.826Z,10.736694
2023-05-08T07:05:40.058Z,10.817261
2023-05-08T07:09:05.240Z,10.837402
2023-05-08T07:12:30.414Z,10.847473
2023-05-08T07:15:55.628Z,10.917969
2023-05-08T07:19:22.325Z,10.917969
2023-05-08T07:22:45.891Z,11.038818
2023-05-08T07:26:11.111Z,11.038818
2023-05-08T07:29:36.308Z,11.109314
2023-05-08T07:33:01.515Z,11.149597
2023-05-08T07:36:26.721Z,11.290588
2023-05-08T07:39:51.918Z,11.572571
2023-05-08T07:43:37.085Z,11.703491
2023-05-08T07:47:02.165Z,11.824341
2023-05-08T07:50:27.404Z,12.015686
2023-05-08T07:53:53.192Z,12.227173
2023-05-08T07:57:18.365Z,12.44873
2023-05-08T08:00:43.577Z,12.670288
2023-05-08T08:04:08.860Z,12.791138
2023-05-08T08:07:34.071Z,12.922058
2023-05-08T08:10:59.465Z,13.052979
2023-05-08T08:14:24.462Z,13.143616
2023-05-08T08:17:49.820Z,13.294678
2023-05-08T08:21:14.877Z,13.455811
2023-05-08T08:24:40.057Z,13.616943
2023-05-08T08:28:05.261Z,13.586731
2023-05-08T08:31:30.541Z,13.616943
2023-05-08T08:34:55.740Z,13.486023
2023-05-08T08:38:20.801Z,13.596802
2023-05-08T08:41:45.968Z,13.657227
2023-05-08T08:45:11.371Z,13.667297
2023-05-08T08:48:36.332Z,13.566589
2023-05-08T08:52:01.589Z,13.566589
2023-05-08T08:55:26.676Z,13.667297
2023-05-08T08:58:51.857Z,13.868713
2023-05-08T09:02:17.058Z,13.878784
2023-05-08T09:05:42.290Z,13.999634
2023-05-08T09:09:07.547Z,14.029846
2023-05-08T09:12:32.577Z,14.180908
2023-05-08T09:15:57.915Z,14.291687
2023-05-08T09:19:25.608Z,14.422607
2023-05-08T09:22:48.625Z,14.523315
2023-05-08T09:26:14.031Z,14.624023
2023-05-08T09:29:39.047Z,14.644165
2023-05-08T09:33:04.842Z,14.613953
2023-05-08T09:36:30.168Z,14.603882
2023-05-08T09:39:55.336Z,14.724731
2023-05-08T09:43:20.606Z,14.775085
2023-05-08T09:46:45.766Z,14.946289
2023-05-08T09:50:10.995Z,15.167847
2023-05-08T09:53:36.085Z,15.318909
2023-05-08T09:57:01.318Z,15.439758
2023-05-08T10:00:26.605Z,15.651245
2023-05-08T10:03:51.643Z,15.691528
2023-05-08T10:07:16.768Z,15.671387
2023-05-08T10:10:41.966Z,15.71167
2023-05-08T10:14:07.126Z,15.822449
2023-05-08T10:17:32.414Z,15.933228
2023-05-08T10:20:57.456Z,16.003723
2023-05-08T10:24:22.679Z,15.923157
2023-05-08T10:27:47.830Z,16.08429
2023-05-08T10:31:13.062Z,16.114502
2023-05-08T10:34:38.325Z,16.34613
2023-05-08T10:38:03.427Z,16.517334
2023-05-08T10:41:28.586Z,16.376343
2023-05-08T10:44:53.735Z,16.225281
2023-05-08T10:48:18.909Z,15.923157
2023-05-08T10:51:44.072Z,16.08429
2023-05-08T10:55:09.188Z,16.08429
2023-05-08T10:58:34.381Z,16.013794
2023-05-08T11:01:59.557Z,16.225281
2023-05-08T11:05:24.663Z,16.446838
2023-05-08T11:08:49.869Z,16.638184
2023-05-08T11:12:14.988Z,16.638184
2023-05-08T11:15:40.248Z,16.406555
2023-05-08T11:19:05.416Z,16.487122
2023-05-08T11:22:30.559Z,16.527405
2023-05-08T11:25:55.765Z,16.487122
2023-05-08T11:29:20.912Z,16.628113
2023-05-08T11:32:46.099Z,16.668396
2023-05-08T11:36:11.269Z,16.779175
2023-05-08T11:39:37.194Z,16.759033
2023-05-08T11:43:02.436Z,16.879883
2023-05-08T11:46:27.654Z,17.010803
2023-05-08T11:49:52.841Z,17.111511
2023-05-08T11:53:18.063Z,17.192078
2023-05-08T11:56:43.970Z,17.34314
2023-05-08T12:00:08.516Z,17.524414
2023-05-08T12:03:33.855Z,17.735901
2023-05-08T12:06:58.929Z,17.625122
2023-05-08T12:10:24.035Z,17.615051
2023-05-08T12:13:49.229Z,17.494202
2023-05-08T12:17:14.481Z,17.625122
2023-05-08T12:20:39.568Z,17.715759
2023-05-08T12:24:04.786Z,17.776184
2023-05-08T12:27:29.960Z,17.816467
2023-05-08T12:30:55.161Z,17.866821
2023-05-08T12:34:20.335Z,17.917175
2023-05-08T12:37:45.533Z,17.85675
2023-05-08T12:41:10.731Z,17.806396
2023-05-08T12:44:35.922Z,17.806396
2023-05-08T12:48:01.140Z,17.675476
2023-05-08T12:51:26.659Z,17.59491
2023-05-08T12:54:51.704Z,17.514343
2023-05-08T12:58:16.958Z,17.443848
2023-05-08T13:01:42.164Z,17.484131
2023-05-08T13:05:07.367Z,17.484131
2023-05-08T13:08:32.723Z,17.544556
2023-05-08T13:11:57.813Z,17.584839
2023-05-08T13:15:23.114Z,17.635193
2023-05-08T13:18:48.379Z,17.786255
2023-05-08T13:22:13.553Z,17.927246
2023-05-08T13:25:38.965Z,17.997742
2023-05-08T13:29:04.076Z,18.027954
2023-05-08T13:32:29.338Z,18.048096
2023-05-08T13:35:54.525Z,18.168945
2023-05-08T13:39:19.775Z,18.199158
2023-05-08T13:42:45.492Z,18.22937
2023-05-08T13:46:10.595Z,18.259583
2023-05-08T13:49:35.785Z,18.299866
2023-05-08T13:53:00.988Z,18.269653
2023-05-08T13:56:26.199Z,18.259583
2023-05-08T13:59:51.505Z,18.289795
2023-05-08T14:03:16.627Z,18.289795
2023-05-08T14:06:41.828Z,18.289795
2023-05-08T14:10:07.020Z,18.269653
2023-05-08T14:13:32.256Z,18.199158
2023-05-08T14:16:57.577Z,18.118591
2023-05-08T14:20:22.745Z,18.108521
2023-05-08T14:23:47.967Z,18.138733
2023-05-08T14:27:13.155Z,18.09845
2023-05-08T14:30:38.332Z,18.048096
2023-05-08T14:34:03.678Z,17.987671
2023-05-08T14:37:28.783Z,17.917175
2023-05-08T14:40:53.957Z,17.917175
2023-05-08T14:44:19.219Z,17.886963
2023-05-08T14:47:44.442Z,17.806396
2023-05-08T14:51:09.765Z,17.735901
2023-05-08T14:54:35.063Z,17.675476
2023-05-08T14:58:00.044Z,17.544556
2023-05-08T15:01:25.297Z,17.494202
2023-05-08T15:04:50.427Z,17.403564
2023-05-08T15:08:15.787Z,17.333069
2023-05-08T15:11:40.843Z,17.302856
2023-05-08T15:46:33.038Z,17.655334
2023-05-08T15:49:58.119Z,17.615051
2023-05-08T15:53:23.329Z,17.554626
2023-05-08T15:56:48.519Z,17.433777
2023-05-08T16:00:13.729Z,17.302856
2023-05-08T16:03:39.019Z,17.121582
2023-05-08T16:07:04.088Z,17.010803
2023-05-08T16:10:29.311Z,16.930237
2023-05-08T16:13:54.547Z,16.910095
2023-05-08T16:17:19.686Z,16.980591
2023-05-08T16:20:44.949Z,17.041016
2023-05-08T16:24:11.836Z,17.071228
2023-05-08T16:27:37.057Z,17.041016
2023-05-08T16:31:02.269Z,16.930237
2023-05-08T16:34:27.458Z,16.859741
2023-05-08T16:37:52.827Z,16.789246
2023-05-08T16:41:17.900Z,16.628113
2023-05-08T16:44:43.159Z,16.497192
2023-05-08T16:48:08.376Z,16.477051
2023-05-08T16:51:33.557Z,16.406555
2023-05-08T16:54:58.925Z,16.406555
2023-05-08T16:58:24.045Z,16.325989
2023-05-08T17:01:49.305Z,16.245422
2023-05-08T17:05:14.685Z,16.174927
2023-05-08T17:08:39.721Z,16.114502
2023-05-08T17:12:05.028Z,16.044006
2023-05-08T17:15:30.131Z,16.054077
2023-05-08T17:18:55.340Z,16.013794
2023-05-08T17:22:20.559Z,16.013794
2023-05-08T17:25:45.933Z,15.943298
2023-05-08T17:29:11.281Z,15.96344
2023-05-08T17:32:36.358Z,15.892944
2023-05-08T17:36:01.572Z,15.762024
2023-05-08T17:39:27.087Z,15.751953
2023-05-08T17:42:52.280Z,15.671387
2023-05-08T17:46:17.628Z,15.621033
2023-05-08T17:49:42.631Z,15.540466
2023-05-08T17:53:07.846Z,15.429688
2023-05-08T17:56:33.023Z,15.409546
2023-05-08T17:59:59.165Z,15.318909
2023-05-08T18:03:24.491Z,15.278625
2023-05-08T18:06:49.494Z,15.228271
2023-05-08T18:10:15.013Z,15.187988
2023-05-08T18:13:39.937Z,15.097351
2023-05-08T18:17:05.181Z,14.976501
2023-05-08T18:20:30.476Z,14.855652
2023-05-08T18:23:55.537Z,14.765015
2023-05-08T18:27:20.693Z,14.624023
2023-05-08T18:30:45.926Z,14.513245
2023-05-08T18:34:11.144Z,14.402466
2023-05-08T18:37:36.404Z,14.321899
2023-05-08T18:41:01.473Z,14.221191
2023-05-08T18:44:26.695Z,14.120483
2023-05-08T18:47:51.929Z,14.060059
2023-05-08T18:51:17.127Z,14.029846
2023-05-08T18:54:42.451Z,13.989563
2023-05-08T18:58:07.503Z,13.969421
2023-05-08T19:01:32.663Z,13.94928
2023-05-08T19:04:57.905Z,13.878784
2023-05-08T19:08:23.055Z,13.808289
2023-05-08T19:11:48.326Z,13.818359
2023-05-08T19:15:13.842Z,13.747864
2023-05-08T19:18:38.511Z,13.637085
2023-05-08T19:22:03.694Z,13.586731
2023-05-08T19:25:28.906Z,13.536377
2023-05-08T19:28:54.192Z,13.375244
2023-05-08T19:32:19.295Z,13.294678
2023-05-08T19:35:44.457Z,13.204041
2023-05-08T19:39:09.611Z,13.113403
2023-05-08T19:42:35.763Z,13.083191
2023-05-08T19:46:01.034Z,13.042908
2023-05-08T19:49:26.104Z,12.952271
2023-05-08T19:52:51.238Z,12.851562
2023-05-08T19:56:16.447Z,12.831421
2023-05-08T19:59:41.615Z,12.781067
2023-05-08T20:03:06.986Z,12.650146
2023-05-08T20:06:31.952Z,12.519226
2023-05-08T20:09:57.146Z,12.348022
2023-05-08T20:13:22.381Z,12.307739
2023-05-08T20:16:47.476Z,12.31781
2023-05-08T20:20:12.873Z,12.337952
2023-05-08T20:23:37.777Z,12.348022
2023-05-08T20:27:02.997Z,12.378235
2023-05-08T20:30:28.219Z,12.458801
2023-05-08T20:33:53.348Z,12.499084
2023-05-08T20:37:18.660Z,12.529297
2023-05-08T20:40:43.689Z,12.499084
2023-05-08T20:44:08.859Z,12.408447
2023-05-08T20:47:34.049Z,12.337952
2023-05-08T20:50:59.188Z,12.307739
2023-05-08T20:54:24.460Z,12.237244
2023-05-08T20:57:49.503Z,12.207031
2023-05-08T21:01:14.715Z,12.166748
2023-05-08T21:04:39.851Z,12.136536
2023-05-08T21:08:05.854Z,12.015686
2023-05-08T21:11:31.284Z,11.985474
2023-05-08T21:14:56.155Z,12.005615
2023-05-08T21:18:21.307Z,12.045898
2023-05-08T21:21:46.433Z,12.005615
2023-05-08T21:25:12.550Z,11.985474
2023-05-08T21:28:36.876Z,12.005615
2023-05-08T21:32:02.005Z,12.005615
2023-05-08T21:35:27.021Z,11.985474
2023-05-08T21:38:52.194Z,11.914978
2023-05-08T21:42:17.360Z,11.854553
2023-05-08T21:45:42.626Z,11.723633
2023-05-08T21:49:07.644Z,11.622925
2023-05-08T21:52:32.815Z,11.572571
2023-05-08T21:55:57.956Z,11.522217
2023-05-08T21:59:23.119Z,11.421509
2023-05-08T22:02:48.455Z,11.371155
2023-05-08T22:06:13.411Z,11.250305
2023-05-08T22:09:38.577Z,11.250305
2023-05-08T22:13:03.760Z,11.210022
2023-05-08T22:16:29.000Z,11.169739
2023-05-08T22:19:54.150Z,11.089172
2023-05-08T22:23:19.177Z,10.988464
2023-05-08T22:26:44.337Z,10.80719
2023-05-08T22:30:09.519Z,10.696411
2023-05-08T22:33:34.698Z,10.595703
2023-05-08T22:36:59.986Z,10.505066
2023-05-08T22:40:25.026Z,10.414429
2023-05-08T22:43:50.174Z,10.364075
2023-05-08T22:47:15.309Z,10.404358
2023-05-08T22:50:40.437Z,10.364075
2023-05-08T22:54:05.717Z,10.333862
2023-05-08T22:57:30.744Z,10.333862
2023-05-08T23:00:55.933Z,10.333862
2023-05-08T23:04:21.060Z,10.4245
2023-05-08T23:07:46.172Z,10.414429
2023-05-08T23:11:11.417Z,10.233154
2023-05-08T23:14:36.430Z,10.041809
2023-05-08T23:18:01.591Z,9.830322
2023-05-08T23:21:26.773Z,9.689331
2023-05-08T23:24:51.911Z,9.638977
2023-05-08T23:28:17.172Z,9.598694
2023-05-08T23:31:42.222Z,9.568481
2023-05-08T23:35:07.373Z,9.558411
2023-05-08T23:38:32.503Z,9.578552
2023-05-08T23:41:57.652Z,9.568481
2023-05-08T23:45:22.905Z,9.477844
2023-05-08T23:48:47.981Z,9.377136
2023-05-08T23:52:13.122Z,9.276428
2023-05-08T23:55:38.264Z,9.236145
2023-05-08T23:59:03.408Z,9.256287
